sensor_id;sensor_type;location;lat;lon;timestamp;P1;durP1;ratioP1;P2;durP2;ratioP2
45548;SDS011;31270;48.328;10.096;2024-01-07T00:00:02;27.60;;;14.60;;
45548;SDS011;31270;48.328;10.096;2024-01-07T00:02:29;26.63;;;12.53;;
45548;SDS011;31270;48.328;10.096;2024-01-07T00:04:55;26.87;;;14.20;;
45548;SDS011;31270;48.328;10.096;2024-01-07T00:07:21;25.93;;;13.67;;
45548;SDS011;31270;48.328;10.096;2024-01-07T00:09:47;26.57;;;14.47;;
45548;SDS011;31270;48.328;10.096;2024-01-07T00:12:12;23.83;;;12.80;;
45548;SDS011;31270;48.328;10.096;2024-01-07T00:14:38;23.13;;;12.40;;
45548;SDS011;31270;48.328;10.096;2024-01-07T00:17:04;23.07;;;13.07;;
45548;SDS011;31270;48.328;10.096;2024-01-07T00:19:29;20.17;;;12.60;;
45548;SDS011;31270;48.328;10.096;2024-01-07T00:22:00;24.90;;;12.87;;
45548;SDS011;31270;48.328;10.096;2024-01-07T00:24:26;27.77;;;14.10;;
45548;SDS011;31270;48.328;10.096;2024-01-07T00:26:54;25.53;;;12.60;;
45548;SDS011;31270;48.328;10.096;2024-01-07T00:29:20;23.40;;;12.73;;
45548;SDS011;31270;48.328;10.096;2024-01-07T00:31:45;23.37;;;12.47;;
45548;SDS011;31270;48.328;10.096;2024-01-07T00:34:11;24.30;;;13.50;;
45548;SDS011;31270;48.328;10.096;2024-01-07T00:36:36;23.67;;;13.03;;
45548;SDS011;31270;48.328;10.096;2024-01-07T00:39:02;24.13;;;12.60;;
45548;SDS011;31270;48.328;10.096;2024-01-07T00:41:28;21.80;;;12.03;;
45548;SDS011;31270;48.328;10.096;2024-01-07T00:43:55;19.70;;;12.00;;
45548;SDS011;31270;48.328;10.096;2024-01-07T00:46:20;20.97;;;12.50;;
45548;SDS011;31270;48.328;10.096;2024-01-07T00:48:46;20.53;;;10.70;;
45548;SDS011;31270;48.328;10.096;2024-01-07T00:51:12;18.20;;;10.50;;
45548;SDS011;31270;48.328;10.096;2024-01-07T00:53:37;21.67;;;10.80;;
45548;SDS011;31270;48.328;10.096;2024-01-07T00:56:03;16.13;;;9.40;;
45548;SDS011;31270;48.328;10.096;2024-01-07T00:58:29;20.23;;;10.50;;
45548;SDS011;31270;48.328;10.096;2024-01-07T01:00:54;18.40;;;10.83;;
45548;SDS011;31270;48.328;10.096;2024-01-07T01:03:20;16.63;;;10.07;;
45548;SDS011;31270;48.328;10.096;2024-01-07T01:05:46;17.70;;;10.47;;
45548;SDS011;31270;48.328;10.096;2024-01-07T01:08:11;18.10;;;11.10;;
45548;SDS011;31270;48.328;10.096;2024-01-07T01:10:37;18.50;;;10.40;;
45548;SDS011;31270;48.328;10.096;2024-01-07T01:13:03;18.50;;;10.73;;
45548;SDS011;31270;48.328;10.096;2024-01-07T01:15:29;22.47;;;11.17;;
45548;SDS011;31270;48.328;10.096;2024-01-07T01:17:54;18.63;;;10.53;;
45548;SDS011;31270;48.328;10.096;2024-01-07T01:20:20;16.10;;;9.23;;
45548;SDS011;31270;48.328;10.096;2024-01-07T01:22:45;18.63;;;9.63;;
45548;SDS011;31270;48.328;10.096;2024-01-07T01:25:11;16.60;;;9.10;;
45548;SDS011;31270;48.328;10.096;2024-01-07T01:27:37;15.63;;;9.40;;
45548;SDS011;31270;48.328;10.096;2024-01-07T01:30:02;18.83;;;9.43;;
45548;SDS011;31270;48.328;10.096;2024-01-07T01:32:29;18.43;;;10.80;;
45548;SDS011;31270;48.328;10.096;2024-01-07T01:34:54;17.47;;;10.67;;
45548;SDS011;31270;48.328;10.096;2024-01-07T01:37:20;20.67;;;10.83;;
45548;SDS011;31270;48.328;10.096;2024-01-07T01:39:45;19.17;;;11.37;;
45548;SDS011;31270;48.328;10.096;2024-01-07T01:42:11;22.17;;;11.87;;
45548;SDS011;31270;48.328;10.096;2024-01-07T01:44:36;20.67;;;12.13;;
45548;SDS011;31270;48.328;10.096;2024-01-07T01:47:02;21.00;;;11.43;;
45548;SDS011;31270;48.328;10.096;2024-01-07T01:49:30;18.73;;;11.03;;
45548;SDS011;31270;48.328;10.096;2024-01-07T01:51:56;19.03;;;10.80;;
45548;SDS011;31270;48.328;10.096;2024-01-07T01:54:21;20.30;;;11.87;;
45548;SDS011;31270;48.328;10.096;2024-01-07T01:56:48;23.97;;;11.97;;
45548;SDS011;31270;48.328;10.096;2024-01-07T01:59:14;24.00;;;12.47;;
45548;SDS011;31270;48.328;10.096;2024-01-07T02:01:41;27.47;;;13.57;;
45548;SDS011;31270;48.328;10.096;2024-01-07T02:04:07;26.17;;;13.47;;
45548;SDS011;31270;48.328;10.096;2024-01-07T02:06:34;25.73;;;13.80;;
45548;SDS011;31270;48.328;10.096;2024-01-07T02:09:00;22.53;;;13.13;;
45548;SDS011;31270;48.328;10.096;2024-01-07T02:11:26;25.60;;;13.10;;
45548;SDS011;31270;48.328;10.096;2024-01-07T02:13:52;27.03;;;13.73;;
45548;SDS011;31270;48.328;10.096;2024-01-07T02:16:18;24.23;;;12.93;;
45548;SDS011;31270;48.328;10.096;2024-01-07T02:18:44;25.77;;;13.70;;
45548;SDS011;31270;48.328;10.096;2024-01-07T02:21:12;24.73;;;13.20;;
45548;SDS011;31270;48.328;10.096;2024-01-07T02:23:38;23.23;;;13.20;;
45548;SDS011;31270;48.328;10.096;2024-01-07T02:26:04;25.33;;;13.00;;
45548;SDS011;31270;48.328;10.096;2024-01-07T02:28:30;25.43;;;13.73;;
45548;SDS011;31270;48.328;10.096;2024-01-07T02:30:56;26.37;;;13.53;;
45548;SDS011;31270;48.328;10.096;2024-01-07T02:33:21;22.83;;;12.60;;
45548;SDS011;31270;48.328;10.096;2024-01-07T02:35:47;22.03;;;12.10;;
45548;SDS011;31270;48.328;10.096;2024-01-07T02:38:13;23.87;;;12.50;;
45548;SDS011;31270;48.328;10.096;2024-01-07T02:40:38;23.90;;;11.97;;
45548;SDS011;31270;48.328;10.096;2024-01-07T02:43:04;25.70;;;13.60;;
45548;SDS011;31270;48.328;10.096;2024-01-07T02:45:29;23.77;;;12.13;;
45548;SDS011;31270;48.328;10.096;2024-01-07T02:47:55;22.73;;;13.13;;
45548;SDS011;31270;48.328;10.096;2024-01-07T02:50:21;24.83;;;12.83;;
45548;SDS011;31270;48.328;10.096;2024-01-07T02:52:47;22.87;;;13.37;;
45548;SDS011;31270;48.328;10.096;2024-01-07T02:55:12;25.57;;;12.97;;
45548;SDS011;31270;48.328;10.096;2024-01-07T02:57:38;25.20;;;13.37;;
45548;SDS011;31270;48.328;10.096;2024-01-07T03:00:05;25.70;;;13.87;;
45548;SDS011;31270;48.328;10.096;2024-01-07T03:02:31;25.77;;;13.37;;
45548;SDS011;31270;48.328;10.096;2024-01-07T03:04:57;25.43;;;13.73;;
45548;SDS011;31270;48.328;10.096;2024-01-07T03:07:22;26.63;;;13.50;;
45548;SDS011;31270;48.328;10.096;2024-01-07T03:09:48;24.83;;;13.50;;
45548;SDS011;31270;48.328;10.096;2024-01-07T03:12:15;27.23;;;13.90;;
45548;SDS011;31270;48.328;10.096;2024-01-07T03:14:41;26.57;;;13.93;;
45548;SDS011;31270;48.328;10.096;2024-01-07T03:17:06;25.10;;;13.90;;
45548;SDS011;31270;48.328;10.096;2024-01-07T03:19:32;27.00;;;14.20;;
45548;SDS011;31270;48.328;10.096;2024-01-07T03:21:58;26.20;;;13.70;;
45548;SDS011;31270;48.328;10.096;2024-01-07T03:24:23;27.23;;;14.23;;
45548;SDS011;31270;48.328;10.096;2024-01-07T03:26:49;28.07;;;14.40;;
45548;SDS011;31270;48.328;10.096;2024-01-07T03:29:15;26.97;;;14.20;;
45548;SDS011;31270;48.328;10.096;2024-01-07T03:31:40;29.13;;;14.10;;
45548;SDS011;31270;48.328;10.096;2024-01-07T03:34:06;27.23;;;15.50;;
45548;SDS011;31270;48.328;10.096;2024-01-07T03:36:31;27.40;;;14.97;;
45548;SDS011;31270;48.328;10.096;2024-01-07T03:38:57;26.17;;;14.13;;
45548;SDS011;31270;48.328;10.096;2024-01-07T03:41:23;28.13;;;15.17;;
45548;SDS011;31270;48.328;10.096;2024-01-07T03:43:48;26.53;;;14.63;;
45548;SDS011;31270;48.328;10.096;2024-01-07T03:46:14;29.13;;;14.77;;
45548;SDS011;31270;48.328;10.096;2024-01-07T03:48:41;27.93;;;14.43;;
45548;SDS011;31270;48.328;10.096;2024-01-07T03:51:07;27.20;;;15.33;;
45548;SDS011;31270;48.328;10.096;2024-01-07T03:53:33;24.73;;;14.47;;
45548;SDS011;31270;48.328;10.096;2024-01-07T03:56:00;29.43;;;15.20;;
45548;SDS011;31270;48.328;10.096;2024-01-07T03:58:26;27.30;;;15.07;;
45548;SDS011;31270;48.328;10.096;2024-01-07T04:00:51;28.17;;;15.43;;
45548;SDS011;31270;48.328;10.096;2024-01-07T04:03:17;25.03;;;14.23;;
45548;SDS011;31270;48.328;10.096;2024-01-07T04:05:42;28.40;;;14.83;;
45548;SDS011;31270;48.328;10.096;2024-01-07T04:08:10;24.50;;;14.37;;
45548;SDS011;31270;48.328;10.096;2024-01-07T04:10:36;26.37;;;14.73;;
45548;SDS011;31270;48.328;10.096;2024-01-07T04:13:02;24.97;;;14.90;;
45548;SDS011;31270;48.328;10.096;2024-01-07T04:15:29;26.90;;;14.27;;
45548;SDS011;31270;48.328;10.096;2024-01-07T04:17:55;26.53;;;14.80;;
45548;SDS011;31270;48.328;10.096;2024-01-07T04:20:20;25.83;;;14.20;;
45548;SDS011;31270;48.328;10.096;2024-01-07T04:22:46;28.83;;;15.23;;
45548;SDS011;31270;48.328;10.096;2024-01-07T04:25:12;26.90;;;14.87;;
45548;SDS011;31270;48.328;10.096;2024-01-07T04:27:37;27.63;;;15.20;;
45548;SDS011;31270;48.328;10.096;2024-01-07T04:30:04;25.90;;;15.07;;
45548;SDS011;31270;48.328;10.096;2024-01-07T04:32:31;27.80;;;15.57;;
45548;SDS011;31270;48.328;10.096;2024-01-07T04:34:57;29.37;;;15.63;;
45548;SDS011;31270;48.328;10.096;2024-01-07T04:37:23;29.60;;;16.17;;
45548;SDS011;31270;48.328;10.096;2024-01-07T04:39:49;27.37;;;14.97;;
45548;SDS011;31270;48.328;10.096;2024-01-07T04:42:15;28.33;;;15.17;;
45548;SDS011;31270;48.328;10.096;2024-01-07T04:44:44;28.27;;;15.93;;
45548;SDS011;31270;48.328;10.096;2024-01-07T04:47:23;24.60;;;14.83;;
45548;SDS011;31270;48.328;10.096;2024-01-07T04:49:48;26.50;;;15.63;;
45548;SDS011;31270;48.328;10.096;2024-01-07T04:52:14;25.87;;;15.23;;
45548;SDS011;31270;48.328;10.096;2024-01-07T04:54:39;30.90;;;16.63;;
45548;SDS011;31270;48.328;10.096;2024-01-07T04:57:05;30.97;;;16.30;;
45548;SDS011;31270;48.328;10.096;2024-01-07T04:59:31;31.17;;;15.53;;
45548;SDS011;31270;48.328;10.096;2024-01-07T05:01:56;30.27;;;16.27;;
45548;SDS011;31270;48.328;10.096;2024-01-07T05:04:22;33.70;;;17.20;;
45548;SDS011;31270;48.328;10.096;2024-01-07T05:06:47;34.93;;;15.73;;
45548;SDS011;31270;48.328;10.096;2024-01-07T05:09:13;28.47;;;15.87;;
45548;SDS011;31270;48.328;10.096;2024-01-07T05:11:39;32.20;;;16.50;;
45548;SDS011;31270;48.328;10.096;2024-01-07T05:14:05;28.97;;;16.17;;
45548;SDS011;31270;48.328;10.096;2024-01-07T05:16:30;32.60;;;17.10;;
45548;SDS011;31270;48.328;10.096;2024-01-07T05:18:56;29.63;;;15.60;;
45548;SDS011;31270;48.328;10.096;2024-01-07T05:21:22;32.20;;;17.10;;
45548;SDS011;31270;48.328;10.096;2024-01-07T05:23:48;29.73;;;15.63;;
45548;SDS011;31270;48.328;10.096;2024-01-07T05:26:13;35.40;;;17.07;;
45548;SDS011;31270;48.328;10.096;2024-01-07T05:28:39;26.23;;;16.20;;
45548;SDS011;31270;48.328;10.096;2024-01-07T05:31:04;27.57;;;16.07;;
45548;SDS011;31270;48.328;10.096;2024-01-07T05:33:30;28.27;;;16.10;;
45548;SDS011;31270;48.328;10.096;2024-01-07T05:35:58;28.23;;;16.87;;
45548;SDS011;31270;48.328;10.096;2024-01-07T05:38:24;32.13;;;17.10;;
45548;SDS011;31270;48.328;10.096;2024-01-07T05:40:50;27.17;;;15.77;;
45548;SDS011;31270;48.328;10.096;2024-01-07T05:43:17;30.70;;;17.27;;
45548;SDS011;31270;48.328;10.096;2024-01-07T05:45:42;30.23;;;16.73;;
45548;SDS011;31270;48.328;10.096;2024-01-07T05:48:08;28.93;;;15.73;;
45548;SDS011;31270;48.328;10.096;2024-01-07T05:50:33;29.93;;;16.60;;
45548;SDS011;31270;48.328;10.096;2024-01-07T05:53:05;30.80;;;17.03;;
45548;SDS011;31270;48.328;10.096;2024-01-07T05:55:34;31.27;;;16.87;;
45548;SDS011;31270;48.328;10.096;2024-01-07T05:58:15;33.13;;;17.67;;
45548;SDS011;31270;48.328;10.096;2024-01-07T06:00:44;33.50;;;17.60;;
45548;SDS011;31270;48.328;10.096;2024-01-07T06:03:18;35.07;;;17.33;;
45548;SDS011;31270;48.328;10.096;2024-01-07T06:05:44;30.80;;;17.57;;
45548;SDS011;31270;48.328;10.096;2024-01-07T06:08:11;33.93;;;17.80;;
45548;SDS011;31270;48.328;10.096;2024-01-07T06:10:38;33.63;;;17.27;;
45548;SDS011;31270;48.328;10.096;2024-01-07T06:13:04;32.07;;;17.63;;
45548;SDS011;31270;48.328;10.096;2024-01-07T06:15:29;38.10;;;19.57;;
45548;SDS011;31270;48.328;10.096;2024-01-07T06:17:55;34.93;;;18.73;;
45548;SDS011;31270;48.328;10.096;2024-01-07T06:20:21;32.03;;;17.87;;
45548;SDS011;31270;48.328;10.096;2024-01-07T06:22:46;33.10;;;18.40;;
45548;SDS011;31270;48.328;10.096;2024-01-07T06:25:12;33.67;;;18.53;;
45548;SDS011;31270;48.328;10.096;2024-01-07T06:27:38;32.53;;;18.73;;
45548;SDS011;31270;48.328;10.096;2024-01-07T06:30:04;33.67;;;18.70;;
45548;SDS011;31270;48.328;10.096;2024-01-07T06:32:31;37.93;;;19.67;;
45548;SDS011;31270;48.328;10.096;2024-01-07T06:34:57;40.00;;;20.13;;
45548;SDS011;31270;48.328;10.096;2024-01-07T06:37:23;35.27;;;18.93;;
45548;SDS011;31270;48.328;10.096;2024-01-07T06:39:50;36.20;;;19.50;;
45548;SDS011;31270;48.328;10.096;2024-01-07T06:42:16;38.37;;;19.67;;
45548;SDS011;31270;48.328;10.096;2024-01-07T06:44:42;37.30;;;20.07;;
45548;SDS011;31270;48.328;10.096;2024-01-07T06:47:07;38.90;;;20.13;;
45548;SDS011;31270;48.328;10.096;2024-01-07T06:49:33;37.47;;;20.23;;
45548;SDS011;31270;48.328;10.096;2024-01-07T06:51:59;38.17;;;20.07;;
45548;SDS011;31270;48.328;10.096;2024-01-07T06:54:24;36.03;;;19.90;;
45548;SDS011;31270;48.328;10.096;2024-01-07T06:56:50;38.87;;;20.77;;
45548;SDS011;31270;48.328;10.096;2024-01-07T06:59:16;37.03;;;19.30;;
45548;SDS011;31270;48.328;10.096;2024-01-07T07:01:41;37.00;;;20.67;;
45548;SDS011;31270;48.328;10.096;2024-01-07T07:04:07;37.90;;;19.97;;
45548;SDS011;31270;48.328;10.096;2024-01-07T07:06:32;45.40;;;22.13;;
45548;SDS011;31270;48.328;10.096;2024-01-07T07:08:59;35.47;;;19.60;;
45548;SDS011;31270;48.328;10.096;2024-01-07T07:11:25;38.10;;;20.17;;
45548;SDS011;31270;48.328;10.096;2024-01-07T07:13:50;40.50;;;19.00;;
45548;SDS011;31270;48.328;10.096;2024-01-07T07:16:16;37.20;;;20.17;;
45548;SDS011;31270;48.328;10.096;2024-01-07T07:18:41;40.20;;;19.83;;
45548;SDS011;31270;48.328;10.096;2024-01-07T07:21:07;40.37;;;21.03;;
45548;SDS011;31270;48.328;10.096;2024-01-07T07:23:33;35.47;;;19.53;;
45548;SDS011;31270;48.328;10.096;2024-01-07T07:25:58;37.63;;;20.03;;
45548;SDS011;31270;48.328;10.096;2024-01-07T07:28:24;39.17;;;20.93;;
45548;SDS011;31270;48.328;10.096;2024-01-07T07:30:50;38.03;;;20.40;;
45548;SDS011;31270;48.328;10.096;2024-01-07T07:33:15;37.70;;;18.77;;
45548;SDS011;31270;48.328;10.096;2024-01-07T07:35:41;34.30;;;18.77;;
45548;SDS011;31270;48.328;10.096;2024-01-07T07:38:07;32.17;;;18.63;;
45548;SDS011;31270;48.328;10.096;2024-01-07T07:40:32;32.50;;;18.47;;
45548;SDS011;31270;48.328;10.096;2024-01-07T07:42:58;31.87;;;18.67;;
45548;SDS011;31270;48.328;10.096;2024-01-07T07:45:24;36.33;;;18.97;;
45548;SDS011;31270;48.328;10.096;2024-01-07T07:47:49;29.83;;;17.53;;
45548;SDS011;31270;48.328;10.096;2024-01-07T07:50:15;33.27;;;17.93;;
45548;SDS011;31270;48.328;10.096;2024-01-07T07:52:41;32.53;;;17.23;;
45548;SDS011;31270;48.328;10.096;2024-01-07T07:55:08;30.33;;;18.00;;
45548;SDS011;31270;48.328;10.096;2024-01-07T07:57:34;30.33;;;17.10;;
45548;SDS011;31270;48.328;10.096;2024-01-07T08:00:00;26.37;;;14.63;;
45548;SDS011;31270;48.328;10.096;2024-01-07T08:02:26;29.37;;;16.30;;
45548;SDS011;31270;48.328;10.096;2024-01-07T08:04:52;27.23;;;15.87;;
45548;SDS011;31270;48.328;10.096;2024-01-07T08:07:20;29.57;;;16.23;;
45548;SDS011;31270;48.328;10.096;2024-01-07T08:09:51;30.90;;;16.87;;
45548;SDS011;31270;48.328;10.096;2024-01-07T08:12:17;26.93;;;16.53;;
45548;SDS011;31270;48.328;10.096;2024-01-07T08:14:42;25.70;;;15.53;;
45548;SDS011;31270;48.328;10.096;2024-01-07T08:17:08;28.40;;;16.03;;
45548;SDS011;31270;48.328;10.096;2024-01-07T08:19:33;31.80;;;16.73;;
45548;SDS011;31270;48.328;10.096;2024-01-07T08:22:01;29.93;;;16.63;;
45548;SDS011;31270;48.328;10.096;2024-01-07T08:24:26;26.30;;;15.07;;
45548;SDS011;31270;48.328;10.096;2024-01-07T08:26:52;27.57;;;16.07;;
45548;SDS011;31270;48.328;10.096;2024-01-07T08:29:18;29.07;;;16.77;;
45548;SDS011;31270;48.328;10.096;2024-01-07T08:31:44;28.23;;;15.57;;
45548;SDS011;31270;48.328;10.096;2024-01-07T08:34:09;26.70;;;15.53;;
45548;SDS011;31270;48.328;10.096;2024-01-07T08:36:35;29.80;;;16.60;;
45548;SDS011;31270;48.328;10.096;2024-01-07T08:39:01;30.13;;;16.80;;
45548;SDS011;31270;48.328;10.096;2024-01-07T08:41:26;28.33;;;16.03;;
45548;SDS011;31270;48.328;10.096;2024-01-07T08:43:52;32.40;;;17.20;;
45548;SDS011;31270;48.328;10.096;2024-01-07T08:46:21;28.60;;;15.63;;
45548;SDS011;31270;48.328;10.096;2024-01-07T08:48:46;33.13;;;19.20;;
45548;SDS011;31270;48.328;10.096;2024-01-07T08:51:12;31.07;;;17.17;;
45548;SDS011;31270;48.328;10.096;2024-01-07T08:53:38;27.70;;;15.80;;
45548;SDS011;31270;48.328;10.096;2024-01-07T08:56:04;31.07;;;17.10;;
45548;SDS011;31270;48.328;10.096;2024-01-07T08:58:31;27.23;;;16.40;;
45548;SDS011;31270;48.328;10.096;2024-01-07T09:00:57;30.13;;;17.77;;
45548;SDS011;31270;48.328;10.096;2024-01-07T09:03:23;30.60;;;17.67;;
45548;SDS011;31270;48.328;10.096;2024-01-07T09:05:48;27.00;;;15.60;;
45548;SDS011;31270;48.328;10.096;2024-01-07T09:08:14;28.50;;;16.13;;
45548;SDS011;31270;48.328;10.096;2024-01-07T09:10:40;25.93;;;14.93;;
45548;SDS011;31270;48.328;10.096;2024-01-07T09:13:06;26.67;;;15.87;;
45548;SDS011;31270;48.328;10.096;2024-01-07T09:15:31;24.70;;;13.80;;
45548;SDS011;31270;48.328;10.096;2024-01-07T09:17:58;29.13;;;16.63;;
45548;SDS011;31270;48.328;10.096;2024-01-07T09:20:24;31.57;;;16.97;;
45548;SDS011;31270;48.328;10.096;2024-01-07T09:22:49;25.27;;;14.30;;
45548;SDS011;31270;48.328;10.096;2024-01-07T09:25:15;26.80;;;14.37;;
45548;SDS011;31270;48.328;10.096;2024-01-07T09:27:41;24.63;;;14.27;;
45548;SDS011;31270;48.328;10.096;2024-01-07T09:30:08;32.10;;;15.87;;
45548;SDS011;31270;48.328;10.096;2024-01-07T09:32:36;27.47;;;15.80;;
45548;SDS011;31270;48.328;10.096;2024-01-07T09:35:01;25.63;;;15.30;;
45548;SDS011;31270;48.328;10.096;2024-01-07T09:37:27;26.57;;;14.53;;
45548;SDS011;31270;48.328;10.096;2024-01-07T09:39:53;27.43;;;14.07;;
45548;SDS011;31270;48.328;10.096;2024-01-07T09:42:19;27.73;;;14.63;;
45548;SDS011;31270;48.328;10.096;2024-01-07T09:44:45;22.90;;;12.83;;
45548;SDS011;31270;48.328;10.096;2024-01-07T09:47:11;23.73;;;12.47;;
45548;SDS011;31270;48.328;10.096;2024-01-07T09:49:41;19.50;;;11.60;;
45548;SDS011;31270;48.328;10.096;2024-01-07T09:52:09;26.57;;;12.63;;
45548;SDS011;31270;48.328;10.096;2024-01-07T09:54:36;22.83;;;12.17;;
45548;SDS011;31270;48.328;10.096;2024-01-07T09:57:06;22.83;;;12.80;;
45548;SDS011;31270;48.328;10.096;2024-01-07T09:59:33;19.03;;;11.37;;
45548;SDS011;31270;48.328;10.096;2024-01-07T10:02:00;20.90;;;11.53;;
45548;SDS011;31270;48.328;10.096;2024-01-07T10:04:26;22.90;;;12.07;;
45548;SDS011;31270;48.328;10.096;2024-01-07T10:06:58;22.77;;;12.37;;
45548;SDS011;31270;48.328;10.096;2024-01-07T10:09:32;19.23;;;12.33;;
45548;SDS011;31270;48.328;10.096;2024-01-07T10:11:58;20.87;;;11.60;;
45548;SDS011;31270;48.328;10.096;2024-01-07T10:14:24;20.23;;;11.73;;
45548;SDS011;31270;48.328;10.096;2024-01-07T10:16:51;19.80;;;11.23;;
45548;SDS011;31270;48.328;10.096;2024-01-07T10:19:23;21.10;;;11.83;;
45548;SDS011;31270;48.328;10.096;2024-01-07T10:21:59;21.57;;;11.67;;
45548;SDS011;31270;48.328;10.096;2024-01-07T10:24:41;15.53;;;9.60;;
45548;SDS011;31270;48.328;10.096;2024-01-07T10:27:08;20.90;;;11.20;;
45548;SDS011;31270;48.328;10.096;2024-01-07T10:29:36;20.50;;;12.00;;
45548;SDS011;31270;48.328;10.096;2024-01-07T10:32:05;17.73;;;9.63;;
45548;SDS011;31270;48.328;10.096;2024-01-07T10:34:40;17.67;;;9.57;;
45548;SDS011;31270;48.328;10.096;2024-01-07T10:37:11;20.97;;;10.67;;
45548;SDS011;31270;48.328;10.096;2024-01-07T10:39:39;16.43;;;9.93;;
45548;SDS011;31270;48.328;10.096;2024-01-07T10:42:05;20.13;;;11.17;;
45548;SDS011;31270;48.328;10.096;2024-01-07T10:44:32;21.03;;;10.77;;
45548;SDS011;31270;48.328;10.096;2024-01-07T10:46:58;18.30;;;9.87;;
45548;SDS011;31270;48.328;10.096;2024-01-07T10:49:25;19.77;;;10.67;;
45548;SDS011;31270;48.328;10.096;2024-01-07T10:52:05;17.93;;;9.33;;
45548;SDS011;31270;48.328;10.096;2024-01-07T10:54:33;17.63;;;9.93;;
45548;SDS011;31270;48.328;10.096;2024-01-07T10:57:02;17.97;;;9.20;;
45548;SDS011;31270;48.328;10.096;2024-01-07T10:59:53;18.73;;;8.80;;
45548;SDS011;31270;48.328;10.096;2024-01-07T11:02:19;19.53;;;10.73;;
45548;SDS011;31270;48.328;10.096;2024-01-07T11:04:51;20.43;;;11.23;;
45548;SDS011;31270;48.328;10.096;2024-01-07T11:07:33;19.67;;;10.50;;
45548;SDS011;31270;48.328;10.096;2024-01-07T11:10:06;18.57;;;10.30;;
45548;SDS011;31270;48.328;10.096;2024-01-07T11:12:53;19.23;;;10.47;;
45548;SDS011;31270;48.328;10.096;2024-01-07T11:16:05;16.87;;;10.13;;
45548;SDS011;31270;48.328;10.096;2024-01-07T11:18:24;26.43;;;13.13;;
45548;SDS011;31270;48.328;10.096;2024-01-07T11:21:02;21.37;;;12.20;;
45548;SDS011;31270;48.328;10.096;2024-01-07T11:23:36;20.77;;;12.87;;
45548;SDS011;31270;48.328;10.096;2024-01-07T11:26:07;22.00;;;12.03;;
45548;SDS011;31270;48.328;10.096;2024-01-07T11:28:50;21.60;;;11.13;;
45548;SDS011;31270;48.328;10.096;2024-01-07T11:31:18;22.77;;;12.20;;
45548;SDS011;31270;48.328;10.096;2024-01-07T11:33:45;21.57;;;11.90;;
45548;SDS011;31270;48.328;10.096;2024-01-07T11:36:13;22.47;;;10.90;;
45548;SDS011;31270;48.328;10.096;2024-01-07T11:38:49;19.10;;;10.27;;
45548;SDS011;31270;48.328;10.096;2024-01-07T11:41:15;20.23;;;10.47;;
45548;SDS011;31270;48.328;10.096;2024-01-07T11:43:56;21.63;;;11.13;;
45548;SDS011;31270;48.328;10.096;2024-01-07T11:46:24;21.30;;;11.20;;
45548;SDS011;31270;48.328;10.096;2024-01-07T11:48:54;19.60;;;10.53;;
45548;SDS011;31270;48.328;10.096;2024-01-07T11:51:30;19.60;;;10.97;;
45548;SDS011;31270;48.328;10.096;2024-01-07T11:53:59;18.47;;;10.50;;
45548;SDS011;31270;48.328;10.096;2024-01-07T11:56:26;21.20;;;11.23;;
45548;SDS011;31270;48.328;10.096;2024-01-07T11:58:55;23.63;;;13.90;;
45548;SDS011;31270;48.328;10.096;2024-01-07T12:01:24;20.17;;;11.70;;
45548;SDS011;31270;48.328;10.096;2024-01-07T12:03:53;23.90;;;13.77;;
45548;SDS011;31270;48.328;10.096;2024-01-07T12:06:18;27.93;;;13.73;;
45548;SDS011;31270;48.328;10.096;2024-01-07T12:08:44;27.40;;;15.23;;
45548;SDS011;31270;48.328;10.096;2024-01-07T12:11:11;20.73;;;11.33;;
45548;SDS011;31270;48.328;10.096;2024-01-07T12:13:38;24.13;;;11.60;;
45548;SDS011;31270;48.328;10.096;2024-01-07T12:16:05;24.47;;;12.97;;
45548;SDS011;31270;48.328;10.096;2024-01-07T12:18:31;21.63;;;11.30;;
45548;SDS011;31270;48.328;10.096;2024-01-07T12:20:57;25.00;;;13.03;;
45548;SDS011;31270;48.328;10.096;2024-01-07T12:23:25;21.90;;;11.97;;
45548;SDS011;31270;48.328;10.096;2024-01-07T12:25:59;22.47;;;11.03;;
45548;SDS011;31270;48.328;10.096;2024-01-07T12:28:34;20.00;;;10.97;;
45548;SDS011;31270;48.328;10.096;2024-01-07T12:31:00;22.20;;;11.40;;
45548;SDS011;31270;48.328;10.096;2024-01-07T12:33:26;24.80;;;12.87;;
45548;SDS011;31270;48.328;10.096;2024-01-07T12:35:55;22.77;;;12.10;;
45548;SDS011;31270;48.328;10.096;2024-01-07T12:38:24;25.13;;;13.57;;
45548;SDS011;31270;48.328;10.096;2024-01-07T12:40:50;26.73;;;14.00;;
45548;SDS011;31270;48.328;10.096;2024-01-07T12:43:16;25.60;;;14.23;;
45548;SDS011;31270;48.328;10.096;2024-01-07T12:45:42;26.87;;;13.03;;
45548;SDS011;31270;48.328;10.096;2024-01-07T12:48:09;29.17;;;13.63;;
45548;SDS011;31270;48.328;10.096;2024-01-07T12:50:36;26.00;;;12.83;;
45548;SDS011;31270;48.328;10.096;2024-01-07T12:53:01;24.80;;;14.33;;
45548;SDS011;31270;48.328;10.096;2024-01-07T12:55:27;25.83;;;14.37;;
45548;SDS011;31270;48.328;10.096;2024-01-07T12:57:54;26.33;;;14.40;;
45548;SDS011;31270;48.328;10.096;2024-01-07T13:00:21;27.73;;;15.47;;
45548;SDS011;31270;48.328;10.096;2024-01-07T13:02:47;28.60;;;16.03;;
45548;SDS011;31270;48.328;10.096;2024-01-07T13:05:13;27.17;;;14.47;;
45548;SDS011;31270;48.328;10.096;2024-01-07T13:07:39;27.07;;;16.80;;
45548;SDS011;31270;48.328;10.096;2024-01-07T13:10:05;26.63;;;14.10;;
45548;SDS011;31270;48.328;10.096;2024-01-07T13:12:31;29.93;;;16.07;;
45548;SDS011;31270;48.328;10.096;2024-01-07T13:14:56;25.23;;;14.10;;
45548;SDS011;31270;48.328;10.096;2024-01-07T13:17:22;24.47;;;13.97;;
45548;SDS011;31270;48.328;10.096;2024-01-07T13:19:48;25.90;;;14.90;;
45548;SDS011;31270;48.328;10.096;2024-01-07T13:22:13;31.50;;;15.20;;
45548;SDS011;31270;48.328;10.096;2024-01-07T13:24:39;32.53;;;17.47;;
45548;SDS011;31270;48.328;10.096;2024-01-07T13:27:06;25.33;;;13.37;;
45548;SDS011;31270;48.328;10.096;2024-01-07T13:29:33;25.60;;;14.37;;
45548;SDS011;31270;48.328;10.096;2024-01-07T13:32:00;29.97;;;16.47;;
45548;SDS011;31270;48.328;10.096;2024-01-07T13:34:25;26.30;;;15.97;;
45548;SDS011;31270;48.328;10.096;2024-01-07T13:36:52;29.37;;;15.50;;
45548;SDS011;31270;48.328;10.096;2024-01-07T13:39:17;28.50;;;13.80;;
45548;SDS011;31270;48.328;10.096;2024-01-07T13:41:43;26.67;;;13.67;;
45548;SDS011;31270;48.328;10.096;2024-01-07T13:44:09;27.83;;;15.37;;
45548;SDS011;31270;48.328;10.096;2024-01-07T13:46:43;30.90;;;15.27;;
45548;SDS011;31270;48.328;10.096;2024-01-07T13:49:10;32.27;;;16.90;;
45548;SDS011;31270;48.328;10.096;2024-01-07T13:51:36;30.37;;;15.97;;
45548;SDS011;31270;48.328;10.096;2024-01-07T13:54:03;31.17;;;17.93;;
45548;SDS011;31270;48.328;10.096;2024-01-07T13:56:29;38.20;;;20.27;;
45548;SDS011;31270;48.328;10.096;2024-01-07T13:58:54;35.57;;;17.77;;
45548;SDS011;31270;48.328;10.096;2024-01-07T14:01:21;24.90;;;13.43;;
45548;SDS011;31270;48.328;10.096;2024-01-07T14:03:46;26.50;;;15.00;;
45548;SDS011;31270;48.328;10.096;2024-01-07T14:06:12;25.43;;;13.77;;